Alsace — PB4786 — position and weather

sailwx.info

Track history (hours):
 
Tides and Currents Weather Stations Pressure Air Temp Water Temp Dewpoint Dewpoint Depression Visibility Wind Speed Wind Dir Waves Ship Positions

Alsace

Last reported at 2015-Jul-02 17:33 UTC. Time now 2015-Jul-02 18:17 UTC.
Position N 49°11' E 008°23'.

Length 178 m; draft 1.8 m.

Type: Ship. MMSI: 244660556.

Date/timePositionNaut miles runAvg speedWind from/ knotsBaromVisibWave heightAir tempDewpointWater temp
2015-Jul-02 17:33N 49°11' E 008°23'1010.1
2015-Jul-02 16:33N 49°01' E 008°18'21 6.5
2015-Jul-02 13:23N 48°45' E 007°58'5 5.3
2015-Jul-02 12:30N 48°41' E 007°55'63 1.5
2015-Jun-30 19:20N 47°40' E 007°31'2 3.0
2015-Jun-30 18:33N 47°38' E 007°33'3 1.5
2015-Jun-30 16:31N 47°35' E 007°35'0 0.0
2015-Jun-30 15:32N 47°35' E 007°35'0 0.3
2015-Jun-30 14:33N 47°35' E 007°35'0 0.2
2015-Jun-30 13:32N 47°35' E 007°35'1 1.3
2015-Jun-30 12:33N 47°36' E 007°35'0 0.0
2015-Jun-30 11:33N 47°36' E 007°35'0 0.0
2015-Jun-30 10:33N 47°36' E 007°35'4 3.6
2015-Jun-30 09:29N 47°39' E 007°32'63 1.7
2015-Jun-28 20:23N 48°41' E 007°54'3 3.4
2015-Jun-28 19:33N 48°43' E 007°57'5 5.2
2015-Jun-28 18:31N 48°47' E 008°02'4 4.1
2015-Jun-28 17:29N 48°50' E 008°07'3 3.4
2015-Jun-28 16:31N 48°53' E 008°08'4 3.7
2015-Jun-28 15:30N 48°57' E 008°11'3 3.5
2015-Jun-28 14:33N 48°59' E 008°15'4 3.8
2015-Jun-28 13:33N 49°02' E 008°18'4 4.1
2015-Jun-28 12:33N 49°05' E 008°21'4 4.1
2015-Jun-28 11:33N 49°09' E 008°22'4 4.1
2015-Jun-28 10:33N 49°13' E 008°23'4 4.4
2015-Jun-28 09:33N 49°17' E 008°27'3 2.9
2015-Jun-28 08:32N 49°20' E 008°27'105 3.7
2015-Jun-27 04:30N 50°49' E 007°01'4 2.9
2015-Jun-27 03:13N 50°53' E 007°03'3 3.8
2015-Jun-27 02:26N 50°54' E 006°59'9 4.3
2015-Jun-27 00:19N 51°03' E 006°56'3 3.2
2015-Jun-26 23:13N 51°06' E 006°53'3 4.1
2015-Jun-26 22:32N 51°09' E 006°51'2 2.3
2015-Jun-26 21:33N 51°10' E 006°48'3 3.5
2015-Jun-26 20:33N 51°12' E 006°44'3 2.7
2015-Jun-26 19:33N 51°14' E 006°46'18 3.4
2015-Jun-26 14:21N 51°32' E 006°41'19 3.7
2015-Jun-26 09:16N 51°46' E 006°20'4 5.5
2015-Jun-26 08:31N 51°49' E 006°16'7 5.1
2015-Jun-26 07:09N 51°51' E 006°05'4 5.7
2015-Jun-26 06:32N 51°53' E 006°01'5 4.2
2015-Jun-26 05:17N 51°51' E 005°52'4 5.3
2015-Jun-26 04:28N 51°53' E 005°46'15 5.1
2015-Jun-26 01:33N 51°49' E 005°23'11 5.1
2015-Jun-25 23:23N 51°50' E 005°05'6 6.6
2015-Jun-25 22:25N 51°49' E 004°55'8 8.0
2015-Jun-25 21:26N 51°49' E 004°42'2 1.5
2015-Jun-25 20:14N 51°51' E 004°40'0 0.0
2015-Jun-25 19:33N 51°51' E 004°40'0 0.0
2015-Jun-25 18:33N 51°51' E 004°40'0 0.0
2015-Jun-25 17:33N 51°51' E 004°40'6 5.9
2015-Jun-25 16:33N 51°54' E 004°32'5 4.6
2015-Jun-25 15:33N 51°54' E 004°25'0 0.4
2015-Jun-25 14:33N 51°54' E 004°24'0 0.1
2015-Jun-25 13:33N 51°53' E 004°24'0 0.1
2015-Jun-25 12:33N 51°54' E 004°24'1 0.6
2015-Jun-25 11:33N 51°54' E 004°25'0 0.0
2015-Jun-25 10:33N 51°54' E 004°25'2 1.6
2015-Jun-25 09:33N 51°54' E 004°22'0 0.0
2015-Jun-25 07:33N 51°54' E 004°22'0 0.0
2015-Jun-25 06:33N 51°54' E 004°22'0 0.0
2015-Jun-25 05:33N 51°54' E 004°22'0 0.0
2015-Jun-25 04:33N 51°54' E 004°22'1 0.7
2015-Jun-25 03:33N 51°54' E 004°21'4 4.5
2015-Jun-25 02:33N 51°53' E 004°14'6 6.3
2015-Jun-25 01:33N 51°56' E 004°05'3 3.2
2015-Jun-25 00:33N 51°59' E 004°01'0 0.1
2015-Jun-24 23:33N 51°59' E 004°02'1 0.8
2015-Jun-24 22:33N 51°58' E 004°03'0 0.0
2015-Jun-24 21:33N 51°58' E 004°03'0 0.0
2015-Jun-24 20:33N 51°58' E 004°03'1 0.7
2015-Jun-24 19:33N 51°58' E 004°03'0 0.2
2015-Jun-24 18:33N 51°58' E 004°03'0 0.0
2015-Jun-24 17:33N 51°58' E 004°03'0 0.0
2015-Jun-24 16:33N 51°58' E 004°03'0 0.0
2015-Jun-24 15:33N 51°58' E 004°03'0 0.0
2015-Jun-24 14:33N 51°58' E 004°03'0 0.0
2015-Jun-24 13:33N 51°58' E 004°03'0 0.1
2015-Jun-24 12:33N 51°58' E 004°03'4 4.2
2015-Jun-24 11:33N 51°56' E 004°09'7 7.0
2015-Jun-24 10:33N 51°53' E 004°20'4 4.1
2015-Jun-24 09:33N 51°53' E 004°26'0 0.1
2015-Jun-24 08:33N 51°53' E 004°26'2 1.6
2015-Jun-24 07:33N 51°54' E 004°24'1 0.8
2015-Jun-24 06:33N 51°53' E 004°24'3 2.6
2015-Jun-24 05:33N 51°52' E 004°20'4 3.7
2015-Jun-24 04:33N 51°53' E 004°14'7 7.0
2015-Jun-24 03:33N 51°57' E 004°05'3 3.1
2015-Jun-24 02:33N 51°57' E 003°60'1 1.1
2015-Jun-24 01:33N 51°58' E 003°60'3 3.2
2015-Jun-24 00:33N 51°57' E 004°05'0 0.0
2015-Jun-23 23:33N 51°57' E 004°05'0 0.0
2015-Jun-23 22:33N 51°57' E 004°05'0 0.0
2015-Jun-23 21:33N 51°57' E 004°05'0 0.0
2015-Jun-23 20:33N 51°57' E 004°05'0 0.2
2015-Jun-23 19:33N 51°57' E 004°04'0 0.0
2015-Jun-23 19:05N 51°57' E 004°04'65 2.8
2015-Jun-22 19:29N 51°52' E 005°50'6 4.7
2015-Jun-22 18:13N 51°52' E 005°59'  
Track history (hours):
 
Tides and Currents Weather Stations Pressure Air Temp Water Temp Dewpoint Dewpoint Depression Visibility Wind Speed Wind Dir Waves Ship Positions

Alsace

Last reported at 2015-Jul-02 17:33 UTC. Time now 2015-Jul-02 18:17 UTC.
Position N 49°11' E 008°23'.

Length 178 m; draft 1.8 m.

Type: Ship. MMSI: 244660556.

Date/timePositionNaut miles runAvg speedWind from/ knotsBaromVisibWave heightAir tempDewpointWater temp
2015-Jul-02 17:33N 49°11' E 008°23'1010.1
2015-Jul-02 16:33N 49°01' E 008°18'21 6.5
2015-Jul-02 13:23N 48°45' E 007°58'5 5.3
2015-Jul-02 12:30N 48°41' E 007°55'63 1.5
2015-Jun-30 19:20N 47°40' E 007°31'2 3.0
2015-Jun-30 18:33N 47°38' E 007°33'3 1.5
2015-Jun-30 16:31N 47°35' E 007°35'0 0.0
2015-Jun-30 15:32N 47°35' E 007°35'0 0.3
2015-Jun-30 14:33N 47°35' E 007°35'0 0.2
2015-Jun-30 13:32N 47°35' E 007°35'1 1.3
2015-Jun-30 12:33N 47°36' E 007°35'0 0.0
2015-Jun-30 11:33N 47°36' E 007°35'0 0.0
2015-Jun-30 10:33N 47°36' E 007°35'4 3.6
2015-Jun-30 09:29N 47°39' E 007°32'63 1.7
2015-Jun-28 20:23N 48°41' E 007°54'3 3.4
2015-Jun-28 19:33N 48°43' E 007°57'5 5.2
2015-Jun-28 18:31N 48°47' E 008°02'4 4.1
2015-Jun-28 17:29N 48°50' E 008°07'3 3.4
2015-Jun-28 16:31N 48°53' E 008°08'4 3.7
2015-Jun-28 15:30N 48°57' E 008°11'3 3.5
2015-Jun-28 14:33N 48°59' E 008°15'4 3.8
2015-Jun-28 13:33N 49°02' E 008°18'4 4.1
2015-Jun-28 12:33N 49°05' E 008°21'4 4.1
2015-Jun-28 11:33N 49°09' E 008°22'4 4.1
2015-Jun-28 10:33N 49°13' E 008°23'4 4.4
2015-Jun-28 09:33N 49°17' E 008°27'3 2.9
2015-Jun-28 08:32N 49°20' E 008°27'105 3.7
2015-Jun-27 04:30N 50°49' E 007°01'4 2.9
2015-Jun-27 03:13N 50°53' E 007°03'3 3.8
2015-Jun-27 02:26N 50°54' E 006°59'9 4.3
2015-Jun-27 00:19N 51°03' E 006°56'3 3.2
2015-Jun-26 23:13N 51°06' E 006°53'3 4.1
2015-Jun-26 22:32N 51°09' E 006°51'2 2.3
2015-Jun-26 21:33N 51°10' E 006°48'3 3.5
2015-Jun-26 20:33N 51°12' E 006°44'3 2.7
2015-Jun-26 19:33N 51°14' E 006°46'18 3.4
2015-Jun-26 14:21N 51°32' E 006°41'19 3.7
2015-Jun-26 09:16N 51°46' E 006°20'4 5.5
2015-Jun-26 08:31N 51°49' E 006°16'7 5.1
2015-Jun-26 07:09N 51°51' E 006°05'4 5.7
2015-Jun-26 06:32N 51°53' E 006°01'5 4.2
2015-Jun-26 05:17N 51°51' E 005°52'4 5.3
2015-Jun-26 04:28N 51°53' E 005°46'15 5.1
2015-Jun-26 01:33N 51°49' E 005°23'11 5.1
2015-Jun-25 23:23N 51°50' E 005°05'6 6.6
2015-Jun-25 22:25N 51°49' E 004°55'8 8.0
2015-Jun-25 21:26N 51°49' E 004°42'2 1.5
2015-Jun-25 20:14N 51°51' E 004°40'0 0.0
2015-Jun-25 19:33N 51°51' E 004°40'0 0.0
2015-Jun-25 18:33N 51°51' E 004°40'0 0.0
2015-Jun-25 17:33N 51°51' E 004°40'6 5.9
2015-Jun-25 16:33N 51°54' E 004°32'5 4.6
2015-Jun-25 15:33N 51°54' E 004°25'0 0.4
2015-Jun-25 14:33N 51°54' E 004°24'0 0.1
2015-Jun-25 13:33N 51°53' E 004°24'0 0.1
2015-Jun-25 12:33N 51°54' E 004°24'1 0.6
2015-Jun-25 11:33N 51°54' E 004°25'0 0.0
2015-Jun-25 10:33N 51°54' E 004°25'2 1.6
2015-Jun-25 09:33N 51°54' E 004°22'0 0.0
2015-Jun-25 07:33N 51°54' E 004°22'0 0.0
2015-Jun-25 06:33N 51°54' E 004°22'0 0.0
2015-Jun-25 05:33N 51°54' E 004°22'0 0.0
2015-Jun-25 04:33N 51°54' E 004°22'1 0.7
2015-Jun-25 03:33N 51°54' E 004°21'4 4.5
2015-Jun-25 02:33N 51°53' E 004°14'6 6.3
2015-Jun-25 01:33N 51°56' E 004°05'3 3.2
2015-Jun-25 00:33N 51°59' E 004°01'0 0.1
2015-Jun-24 23:33N 51°59' E 004°02'1 0.8
2015-Jun-24 22:33N 51°58' E 004°03'0 0.0
2015-Jun-24 21:33N 51°58' E 004°03'0 0.0
2015-Jun-24 20:33N 51°58' E 004°03'1 0.7
2015-Jun-24 19:33N 51°58' E 004°03'0 0.2
2015-Jun-24 18:33N 51°58' E 004°03'0 0.0
2015-Jun-24 17:33N 51°58' E 004°03'0 0.0
2015-Jun-24 16:33N 51°58' E 004°03'0 0.0
2015-Jun-24 15:33N 51°58' E 004°03'0 0.0
2015-Jun-24 14:33N 51°58' E 004°03'0 0.0
2015-Jun-24 13:33N 51°58' E 004°03'0 0.1
2015-Jun-24 12:33N 51°58' E 004°03'4 4.2
2015-Jun-24 11:33N 51°56' E 004°09'7 7.0
2015-Jun-24 10:33N 51°53' E 004°20'4 4.1
2015-Jun-24 09:33N 51°53' E 004°26'0 0.1
2015-Jun-24 08:33N 51°53' E 004°26'2 1.6
2015-Jun-24 07:33N 51°54' E 004°24'1 0.8
2015-Jun-24 06:33N 51°53' E 004°24'3 2.6
2015-Jun-24 05:33N 51°52' E 004°20'4 3.7
2015-Jun-24 04:33N 51°53' E 004°14'7 7.0
2015-Jun-24 03:33N 51°57' E 004°05'3 3.1
2015-Jun-24 02:33N 51°57' E 003°60'1 1.1
2015-Jun-24 01:33N 51°58' E 003°60'3 3.2
2015-Jun-24 00:33N 51°57' E 004°05'0 0.0
2015-Jun-23 23:33N 51°57' E 004°05'0 0.0
2015-Jun-23 22:33N 51°57' E 004°05'0 0.0
2015-Jun-23 21:33N 51°57' E 004°05'0 0.0
2015-Jun-23 20:33N 51°57' E 004°05'0 0.2
2015-Jun-23 19:33N 51°57' E 004°04'0 0.0
2015-Jun-23 19:05N 51°57' E 004°04'65 2.8
2015-Jun-22 19:29N 51°52' E 005°50'6 4.7
2015-Jun-22 18:13N 51°52' E 005°59'  

Dump ship's entire track history